sensor_id;sensor_type;location;lat;lon;timestamp;P1;durP1;ratioP1;P2;durP2;ratioP2
36839;SDS011;24406;51.640;9.566;2024-03-22T00:04:42;17.38;;;13.20;;
36839;SDS011;24406;51.640;9.566;2024-03-22T00:09:46;18.67;;;13.85;;
36839;SDS011;24406;51.640;9.566;2024-03-22T00:14:48;15.52;;;13.25;;
36839;SDS011;24406;51.640;9.566;2024-03-22T00:19:51;19.75;;;13.80;;
36839;SDS011;24406;51.640;9.566;2024-03-22T00:24:54;17.05;;;13.60;;
36839;SDS011;24406;51.640;9.566;2024-03-22T00:29:56;17.92;;;13.43;;
36839;SDS011;24406;51.640;9.566;2024-03-22T00:34:57;13.15;;;11.38;;
36839;SDS011;24406;51.640;9.566;2024-03-22T00:40:00;13.63;;;12.02;;
36839;SDS011;24406;51.640;9.566;2024-03-22T00:45:02;15.77;;;12.63;;
36839;SDS011;24406;51.640;9.566;2024-03-22T00:50:04;16.70;;;11.90;;
36839;SDS011;24406;51.640;9.566;2024-03-22T00:55:08;13.65;;;11.95;;
36839;SDS011;24406;51.640;9.566;2024-03-22T01:00:11;15.00;;;12.40;;
36839;SDS011;24406;51.640;9.566;2024-03-22T01:05:13;15.45;;;12.15;;
36839;SDS011;24406;51.640;9.566;2024-03-22T01:10:16;14.95;;;11.75;;
36839;SDS011;24406;51.640;9.566;2024-03-22T01:15:18;15.65;;;12.27;;
36839;SDS011;24406;51.640;9.566;2024-03-22T01:20:20;15.88;;;12.98;;
36839;SDS011;24406;51.640;9.566;2024-03-22T01:25:24;14.23;;;12.32;;
36839;SDS011;24406;51.640;9.566;2024-03-22T01:30:30;19.75;;;14.38;;
36839;SDS011;24406;51.640;9.566;2024-03-22T01:35:33;18.38;;;14.60;;
36839;SDS011;24406;51.640;9.566;2024-03-22T01:40:36;20.67;;;15.88;;
36839;SDS011;24406;51.640;9.566;2024-03-22T01:45:38;19.38;;;14.80;;
36839;SDS011;24406;51.640;9.566;2024-03-22T01:50:39;20.77;;;14.98;;
36839;SDS011;24406;51.640;9.566;2024-03-22T01:55:42;18.05;;;14.50;;
36839;SDS011;24406;51.640;9.566;2024-03-22T02:00:44;17.35;;;15.27;;
36839;SDS011;24406;51.640;9.566;2024-03-22T02:05:46;17.00;;;14.75;;
36839;SDS011;24406;51.640;9.566;2024-03-22T02:10:48;18.10;;;13.82;;
36839;SDS011;24406;51.640;9.566;2024-03-22T02:15:50;21.27;;;15.65;;
36839;SDS011;24406;51.640;9.566;2024-03-22T02:20:52;17.20;;;14.55;;
36839;SDS011;24406;51.640;9.566;2024-03-22T02:25:56;15.48;;;13.43;;
36839;SDS011;24406;51.640;9.566;2024-03-22T02:30:58;19.13;;;14.50;;
36839;SDS011;24406;51.640;9.566;2024-03-22T02:36:00;17.20;;;14.15;;
36839;SDS011;24406;51.640;9.566;2024-03-22T02:41:03;16.42;;;13.45;;
36839;SDS011;24406;51.640;9.566;2024-03-22T02:46:04;17.10;;;14.43;;
36839;SDS011;24406;51.640;9.566;2024-03-22T02:51:06;17.67;;;14.32;;
36839;SDS011;24406;51.640;9.566;2024-03-22T02:56:09;27.80;;;15.80;;
36839;SDS011;24406;51.640;9.566;2024-03-22T03:01:11;21.05;;;16.08;;
36839;SDS011;24406;51.640;9.566;2024-03-22T03:06:12;20.13;;;15.02;;
36839;SDS011;24406;51.640;9.566;2024-03-22T03:11:16;19.88;;;15.13;;
36839;SDS011;24406;51.640;9.566;2024-03-22T03:16:18;21.27;;;16.50;;
36839;SDS011;24406;51.640;9.566;2024-03-22T03:21:19;21.05;;;15.00;;
36839;SDS011;24406;51.640;9.566;2024-03-22T03:26:22;24.13;;;17.40;;
36839;SDS011;24406;51.640;9.566;2024-03-22T03:31:23;21.25;;;15.88;;
36839;SDS011;24406;51.640;9.566;2024-03-22T03:36:25;25.25;;;17.30;;
36839;SDS011;24406;51.640;9.566;2024-03-22T03:41:28;21.00;;;16.25;;
36839;SDS011;24406;51.640;9.566;2024-03-22T03:46:30;24.38;;;17.00;;
36839;SDS011;24406;51.640;9.566;2024-03-22T03:51:33;21.60;;;17.33;;
36839;SDS011;24406;51.640;9.566;2024-03-22T03:56:36;24.13;;;17.13;;
36839;SDS011;24406;51.640;9.566;2024-03-22T04:01:38;19.63;;;16.90;;
36839;SDS011;24406;51.640;9.566;2024-03-22T04:06:39;20.17;;;16.80;;
36839;SDS011;24406;51.640;9.566;2024-03-22T04:11:42;21.85;;;16.02;;
36839;SDS011;24406;51.640;9.566;2024-03-22T04:16:44;24.00;;;17.10;;
36839;SDS011;24406;51.640;9.566;2024-03-22T04:21:46;23.63;;;17.00;;
36839;SDS011;24406;51.640;9.566;2024-03-22T04:26:49;23.67;;;17.92;;
36839;SDS011;24406;51.640;9.566;2024-03-22T04:31:50;21.38;;;17.00;;
36839;SDS011;24406;51.640;9.566;2024-03-22T04:36:52;23.25;;;17.90;;
36839;SDS011;24406;51.640;9.566;2024-03-22T04:41:55;22.63;;;17.50;;
36839;SDS011;24406;51.640;9.566;2024-03-22T04:46:56;27.17;;;19.23;;
36839;SDS011;24406;51.640;9.566;2024-03-22T04:51:58;30.92;;;19.70;;
36839;SDS011;24406;51.640;9.566;2024-03-22T04:57:01;25.55;;;18.33;;
36839;SDS011;24406;51.640;9.566;2024-03-22T05:02:03;31.25;;;20.88;;
36839;SDS011;24406;51.640;9.566;2024-03-22T05:07:05;27.75;;;20.48;;
36839;SDS011;24406;51.640;9.566;2024-03-22T05:12:17;28.92;;;21.30;;
36839;SDS011;24406;51.640;9.566;2024-03-22T05:17:22;27.00;;;19.27;;
36839;SDS011;24406;51.640;9.566;2024-03-22T05:22:31;25.85;;;19.70;;
36839;SDS011;24406;51.640;9.566;2024-03-22T05:32:41;23.40;;;16.98;;
36839;SDS011;24406;51.640;9.566;2024-03-22T05:37:43;23.40;;;19.70;;
36839;SDS011;24406;51.640;9.566;2024-03-22T05:42:48;24.30;;;18.15;;
36839;SDS011;24406;51.640;9.566;2024-03-22T05:47:56;27.02;;;19.30;;
36839;SDS011;24406;51.640;9.566;2024-03-22T05:53:17;31.92;;;21.00;;
36839;SDS011;24406;51.640;9.566;2024-03-22T05:58:28;32.55;;;22.40;;
36839;SDS011;24406;51.640;9.566;2024-03-22T06:04:48;32.97;;;22.67;;
36839;SDS011;24406;51.640;9.566;2024-03-22T06:10:09;39.55;;;22.67;;
36839;SDS011;24406;51.640;9.566;2024-03-22T06:15:28;30.77;;;21.58;;
36839;SDS011;24406;51.640;9.566;2024-03-22T06:20:44;28.63;;;22.33;;
36839;SDS011;24406;51.640;9.566;2024-03-22T06:26:10;33.40;;;23.40;;
36839;SDS011;24406;51.640;9.566;2024-03-22T06:31:43;34.70;;;23.25;;
36839;SDS011;24406;51.640;9.566;2024-03-22T06:37:09;34.33;;;23.55;;
36839;SDS011;24406;51.640;9.566;2024-03-22T06:42:17;38.72;;;24.75;;
36839;SDS011;24406;51.640;9.566;2024-03-22T06:53:34;37.67;;;25.58;;
36839;SDS011;24406;51.640;9.566;2024-03-22T06:58:44;38.00;;;24.65;;
36839;SDS011;24406;51.640;9.566;2024-03-22T07:04:08;34.20;;;24.95;;
36839;SDS011;24406;51.640;9.566;2024-03-22T07:09:16;40.67;;;26.27;;
36839;SDS011;24406;51.640;9.566;2024-03-22T07:15:08;36.97;;;25.88;;
36839;SDS011;24406;51.640;9.566;2024-03-22T07:20:49;38.85;;;24.83;;
36839;SDS011;24406;51.640;9.566;2024-03-22T07:26:05;41.13;;;26.02;;
36839;SDS011;24406;51.640;9.566;2024-03-22T07:31:25;33.63;;;23.95;;
36839;SDS011;24406;51.640;9.566;2024-03-22T07:36:28;38.55;;;25.75;;
36839;SDS011;24406;51.640;9.566;2024-03-22T07:41:36;49.42;;;27.63;;
36839;SDS011;24406;51.640;9.566;2024-03-22T07:46:41;44.53;;;28.08;;
36839;SDS011;24406;51.640;9.566;2024-03-22T07:51:56;41.50;;;25.85;;
36839;SDS011;24406;51.640;9.566;2024-03-22T07:56:59;38.10;;;25.20;;
36839;SDS011;24406;51.640;9.566;2024-03-22T08:07:26;39.70;;;26.80;;
36839;SDS011;24406;51.640;9.566;2024-03-22T08:12:29;41.72;;;28.50;;
36839;SDS011;24406;51.640;9.566;2024-03-22T08:17:31;43.03;;;27.38;;
36839;SDS011;24406;51.640;9.566;2024-03-22T08:22:39;41.72;;;25.63;;
36839;SDS011;24406;51.640;9.566;2024-03-22T08:27:41;37.40;;;25.67;;
36839;SDS011;24406;51.640;9.566;2024-03-22T08:32:47;38.97;;;25.85;;
36839;SDS011;24406;51.640;9.566;2024-03-22T08:37:51;37.22;;;24.73;;
36839;SDS011;24406;51.640;9.566;2024-03-22T08:42:53;35.20;;;24.30;;
36839;SDS011;24406;51.640;9.566;2024-03-22T08:47:55;36.83;;;24.50;;
36839;SDS011;24406;51.640;9.566;2024-03-22T08:53:00;35.90;;;23.92;;
36839;SDS011;24406;51.640;9.566;2024-03-22T08:58:07;36.42;;;24.63;;
36839;SDS011;24406;51.640;9.566;2024-03-22T09:03:12;35.45;;;23.88;;
36839;SDS011;24406;51.640;9.566;2024-03-22T09:08:17;32.50;;;22.85;;
36839;SDS011;24406;51.640;9.566;2024-03-22T09:13:27;36.25;;;22.20;;
36839;SDS011;24406;51.640;9.566;2024-03-22T09:18:39;30.40;;;21.77;;
36839;SDS011;24406;51.640;9.566;2024-03-22T09:24:27;33.58;;;22.75;;
36839;SDS011;24406;51.640;9.566;2024-03-22T09:29:35;28.15;;;20.33;;
36839;SDS011;24406;51.640;9.566;2024-03-22T09:34:39;30.80;;;21.98;;
36839;SDS011;24406;51.640;9.566;2024-03-22T09:39:51;29.88;;;21.40;;
36839;SDS011;24406;51.640;9.566;2024-03-22T09:55:54;29.30;;;21.45;;
36839;SDS011;24406;51.640;9.566;2024-03-22T10:01:29;27.23;;;18.95;;
36839;SDS011;24406;51.640;9.566;2024-03-22T10:06:33;23.48;;;18.50;;
36839;SDS011;24406;51.640;9.566;2024-03-22T10:12:16;24.25;;;19.02;;
36839;SDS011;24406;51.640;9.566;2024-03-22T10:17:34;28.20;;;18.90;;
36839;SDS011;24406;51.640;9.566;2024-03-22T10:22:55;28.40;;;20.13;;
36839;SDS011;24406;51.640;9.566;2024-03-22T10:28:00;28.20;;;19.35;;
36839;SDS011;24406;51.640;9.566;2024-03-22T10:33:04;25.23;;;19.25;;
36839;SDS011;24406;51.640;9.566;2024-03-22T10:38:18;27.35;;;19.27;;
36839;SDS011;24406;51.640;9.566;2024-03-22T10:43:21;22.52;;;17.63;;
36839;SDS011;24406;51.640;9.566;2024-03-22T10:48:28;24.52;;;18.13;;
36839;SDS011;24406;51.640;9.566;2024-03-22T10:53:35;24.10;;;17.98;;
36839;SDS011;24406;51.640;9.566;2024-03-22T10:58:48;22.98;;;17.23;;
36839;SDS011;24406;51.640;9.566;2024-03-22T11:04:02;23.67;;;17.77;;
36839;SDS011;24406;51.640;9.566;2024-03-22T11:09:08;20.83;;;16.52;;
36839;SDS011;24406;51.640;9.566;2024-03-22T11:25:50;16.58;;;11.70;;
36839;SDS011;24406;51.640;9.566;2024-03-22T11:31:02;12.23;;;10.05;;
36839;SDS011;24406;51.640;9.566;2024-03-22T11:36:35;12.02;;;10.23;;
36839;SDS011;24406;51.640;9.566;2024-03-22T11:41:44;13.15;;;10.15;;
36839;SDS011;24406;51.640;9.566;2024-03-22T11:46:52;11.80;;;10.67;;
36839;SDS011;24406;51.640;9.566;2024-03-22T11:52:00;12.45;;;10.27;;
36839;SDS011;24406;51.640;9.566;2024-03-22T11:57:05;12.07;;;9.68;;
36839;SDS011;24406;51.640;9.566;2024-03-22T12:02:08;12.98;;;9.65;;
36839;SDS011;24406;51.640;9.566;2024-03-22T12:07:14;11.98;;;10.30;;
36839;SDS011;24406;51.640;9.566;2024-03-22T12:12:21;13.70;;;8.88;;
36839;SDS011;24406;51.640;9.566;2024-03-22T12:17:24;12.15;;;7.80;;
36839;SDS011;24406;51.640;9.566;2024-03-22T12:22:31;10.60;;;7.97;;
36839;SDS011;24406;51.640;9.566;2024-03-22T12:27:46;9.43;;;7.88;;
36839;SDS011;24406;51.640;9.566;2024-03-22T12:33:08;8.07;;;7.18;;
36839;SDS011;24406;51.640;9.566;2024-03-22T12:38:14;8.40;;;7.10;;
36839;SDS011;24406;51.640;9.566;2024-03-22T12:43:21;11.20;;;7.43;;
36839;SDS011;24406;51.640;9.566;2024-03-22T12:48:33;10.75;;;7.63;;
36839;SDS011;24406;51.640;9.566;2024-03-22T12:59:12;8.23;;;6.60;;
36839;SDS011;24406;51.640;9.566;2024-03-22T13:04:59;9.95;;;6.38;;
36839;SDS011;24406;51.640;9.566;2024-03-22T13:10:12;7.55;;;6.50;;
36839;SDS011;24406;51.640;9.566;2024-03-22T13:15:24;7.78;;;6.25;;
36839;SDS011;24406;51.640;9.566;2024-03-22T13:20:34;7.82;;;6.57;;
36839;SDS011;24406;51.640;9.566;2024-03-22T13:25:38;11.18;;;6.60;;
36839;SDS011;24406;51.640;9.566;2024-03-22T13:30:41;11.18;;;5.88;;
36839;SDS011;24406;51.640;9.566;2024-03-22T13:35:48;7.15;;;5.82;;
36839;SDS011;24406;51.640;9.566;2024-03-22T13:41:10;7.20;;;5.45;;
36839;SDS011;24406;51.640;9.566;2024-03-22T13:46:15;6.18;;;5.35;;
36839;SDS011;24406;51.640;9.566;2024-03-22T13:51:19;7.75;;;5.55;;
36839;SDS011;24406;51.640;9.566;2024-03-22T13:56:27;6.35;;;4.85;;
36839;SDS011;24406;51.640;9.566;2024-03-22T14:01:31;6.80;;;5.32;;
36839;SDS011;24406;51.640;9.566;2024-03-22T14:06:34;5.28;;;4.78;;
36839;SDS011;24406;51.640;9.566;2024-03-22T14:11:38;9.65;;;5.47;;
36839;SDS011;24406;51.640;9.566;2024-03-22T14:16:43;7.07;;;5.22;;
36839;SDS011;24406;51.640;9.566;2024-03-22T14:21:47;5.90;;;4.90;;
36839;SDS011;24406;51.640;9.566;2024-03-22T14:26:51;6.82;;;4.72;;
36839;SDS011;24406;51.640;9.566;2024-03-22T14:31:52;5.82;;;4.75;;
36839;SDS011;24406;51.640;9.566;2024-03-22T14:36:56;7.28;;;4.88;;
36839;SDS011;24406;51.640;9.566;2024-03-22T14:42:03;6.82;;;5.05;;
36839;SDS011;24406;51.640;9.566;2024-03-22T14:47:11;15.75;;;10.63;;
36839;SDS011;24406;51.640;9.566;2024-03-22T14:52:49;15.73;;;13.27;;
36839;SDS011;24406;51.640;9.566;2024-03-22T14:58:27;16.73;;;12.10;;
36839;SDS011;24406;51.640;9.566;2024-03-22T15:03:46;15.85;;;13.00;;
36839;SDS011;24406;51.640;9.566;2024-03-22T15:08:50;17.88;;;15.63;;
36839;SDS011;24406;51.640;9.566;2024-03-22T15:14:29;14.63;;;10.77;;
36839;SDS011;24406;51.640;9.566;2024-03-22T15:19:37;15.82;;;12.07;;
36839;SDS011;24406;51.640;9.566;2024-03-22T15:24:57;16.40;;;12.10;;
36839;SDS011;24406;51.640;9.566;2024-03-22T15:30:08;15.18;;;11.93;;
36839;SDS011;24406;51.640;9.566;2024-03-22T15:35:12;12.60;;;11.10;;
36839;SDS011;24406;51.640;9.566;2024-03-22T15:45:36;19.17;;;13.00;;
36839;SDS011;24406;51.640;9.566;2024-03-22T15:56:58;20.85;;;15.48;;
36839;SDS011;24406;51.640;9.566;2024-03-22T16:02:14;17.40;;;15.52;;
36839;SDS011;24406;51.640;9.566;2024-03-22T16:07:23;21.05;;;15.52;;
36839;SDS011;24406;51.640;9.566;2024-03-22T16:12:27;22.33;;;18.90;;
36839;SDS011;24406;51.640;9.566;2024-03-22T16:17:34;24.42;;;17.70;;
36839;SDS011;24406;51.640;9.566;2024-03-22T16:22:46;25.05;;;20.48;;
36839;SDS011;24406;51.640;9.566;2024-03-22T16:28:05;29.10;;;23.15;;
36839;SDS011;24406;51.640;9.566;2024-03-22T16:33:21;27.67;;;22.37;;
36839;SDS011;24406;51.640;9.566;2024-03-22T16:38:42;30.80;;;24.23;;
36839;SDS011;24406;51.640;9.566;2024-03-22T16:43:49;29.95;;;24.52;;
36839;SDS011;24406;51.640;9.566;2024-03-22T16:49:05;33.73;;;25.27;;
36839;SDS011;24406;51.640;9.566;2024-03-22T16:54:18;30.23;;;25.00;;
36839;SDS011;24406;51.640;9.566;2024-03-22T16:59:28;31.88;;;26.50;;
36839;SDS011;24406;51.640;9.566;2024-03-22T17:04:56;34.88;;;25.65;;
36839;SDS011;24406;51.640;9.566;2024-03-22T17:10:00;32.47;;;26.55;;
36839;SDS011;24406;51.640;9.566;2024-03-22T17:15:09;33.88;;;27.60;;
36839;SDS011;24406;51.640;9.566;2024-03-22T17:20:25;34.35;;;26.67;;
36839;SDS011;24406;51.640;9.566;2024-03-22T17:25:33;28.10;;;21.67;;
36839;SDS011;24406;51.640;9.566;2024-03-22T17:30:57;28.27;;;22.73;;
36839;SDS011;24406;51.640;9.566;2024-03-22T17:36:06;30.13;;;22.00;;
36839;SDS011;24406;51.640;9.566;2024-03-22T17:41:13;23.35;;;19.60;;
36839;SDS011;24406;51.640;9.566;2024-03-22T17:46:18;24.48;;;20.75;;
36839;SDS011;24406;51.640;9.566;2024-03-22T17:51:28;23.23;;;18.50;;
36839;SDS011;24406;51.640;9.566;2024-03-22T17:56:33;24.80;;;18.98;;
36839;SDS011;24406;51.640;9.566;2024-03-22T18:01:35;17.85;;;15.90;;
36839;SDS011;24406;51.640;9.566;2024-03-22T18:06:43;15.52;;;13.93;;
36839;SDS011;24406;51.640;9.566;2024-03-22T18:11:45;15.75;;;13.20;;
36839;SDS011;24406;51.640;9.566;2024-03-22T18:16:53;15.80;;;12.75;;
36839;SDS011;24406;51.640;9.566;2024-03-22T18:21:56;15.75;;;13.15;;
36839;SDS011;24406;51.640;9.566;2024-03-22T18:27:03;13.73;;;11.63;;
36839;SDS011;24406;51.640;9.566;2024-03-22T18:32:22;12.02;;;10.20;;
36839;SDS011;24406;51.640;9.566;2024-03-22T18:37:25;14.00;;;10.98;;
36839;SDS011;24406;51.640;9.566;2024-03-22T18:42:26;10.70;;;9.23;;
36839;SDS011;24406;51.640;9.566;2024-03-22T18:47:29;11.73;;;9.85;;
36839;SDS011;24406;51.640;9.566;2024-03-22T18:52:36;11.70;;;9.90;;
36839;SDS011;24406;51.640;9.566;2024-03-22T18:57:41;10.30;;;9.20;;
36839;SDS011;24406;51.640;9.566;2024-03-22T19:02:44;7.97;;;7.18;;
36839;SDS011;24406;51.640;9.566;2024-03-22T19:07:55;9.00;;;8.10;;
36839;SDS011;24406;51.640;9.566;2024-03-22T19:13:44;9.77;;;8.77;;
36839;SDS011;24406;51.640;9.566;2024-03-22T19:19:37;10.38;;;8.95;;
36839;SDS011;24406;51.640;9.566;2024-03-22T19:25:03;10.80;;;8.85;;
36839;SDS011;24406;51.640;9.566;2024-03-22T19:30:25;12.73;;;9.40;;
36839;SDS011;24406;51.640;9.566;2024-03-22T19:35:48;12.23;;;10.27;;
36839;SDS011;24406;51.640;9.566;2024-03-22T20:07:32;13.73;;;11.38;;
